Time;durP1;ratioP1;P1;durP2;ratioP2;P2;SDS_P1;SDS_P2;PMS_P1;PMS_P2;Temp;Humidity;BMP_temperature;BMP_pressure;BME280_temperature;BME280_humidity;BME280_pressure;Samples;Min_cycle;Max_cycle;Signal;HPM_P1;HPM_P2
2021/09/22 00:02:16;;;;;;;15.75;10.45;;;;;;;9.24;77.41;97805.83;1739507;81;27430;-90
2021/09/22 00:04:42;;;;;;;14.47;10.25;;;;;;;9.23;77.40;97800.95;1739370;81;26042;-91
2021/09/22 00:07:09;;;;;;;17.85;10.60;;;;;;;9.24;77.41;97807.17;1739604;81;25865;-91
2021/09/22 00:09:35;;;;;;;16.73;10.43;;;;;;;9.24;77.30;97812.56;1739542;81;26044;-91
2021/09/22 00:12:02;;;;;;;15.45;10.45;;;;;;;9.21;77.14;97803.51;1738800;81;25780;-90
2021/09/22 00:14:29;;;;;;;19.32;10.30;;;;;;;9.19;77.16;97793.44;1739493;81;27420;-90
2021/09/22 00:16:56;;;;;;;16.45;11.38;;;;;;;9.16;77.17;97794.68;1737986;81;25702;-90
2021/09/22 00:19:22;;;;;;;16.70;11.88;;;;;;;9.14;77.29;97791.86;1739606;81;26412;-91
2021/09/22 00:21:49;;;;;;;17.25;12.50;;;;;;;9.13;77.38;97789.67;1739560;81;25989;-90
2021/09/22 00:24:16;;;;;;;16.85;12.07;;;;;;;9.12;77.53;97785.31;1739507;81;26262;-90
2021/09/22 00:26:42;;;;;;;16.12;11.85;;;;;;;9.08;77.72;97775.10;1723683;81;27417;-90
2021/09/22 00:29:09;;;;;;;15.25;10.88;;;;;;;9.06;77.83;97781.22;1737227;81;25240;-90
2021/09/22 00:31:36;;;;;;;17.73;11.43;;;;;;;9.01;77.78;97779.93;1725960;82;25804;-90
2021/09/22 00:34:05;;;;;;;19.42;12.53;;;;;;;8.92;77.76;97775.70;1705918;82;26011;-91
2021/09/22 00:36:32;;;;;;;16.23;10.53;;;;;;;8.87;77.96;97770.05;1714889;81;26006;-90
2021/09/22 00:38:59;;;;;;;16.57;12.30;;;;;;;8.77;78.06;97772.23;1727068;81;27279;-91
2021/09/22 00:41:26;;;;;;;19.23;12.65;;;;;;;8.74;78.16;97773.11;1725362;82;25723;-90
2021/09/22 00:43:54;;;;;;;17.75;12.15;;;;;;;8.76;78.32;97766.52;1727108;82;25761;-90
2021/09/22 00:46:21;;;;;;;16.15;11.30;;;;;;;8.77;78.40;97764.16;1706145;82;26162;-90
2021/09/22 00:48:47;;;;;;;14.07;11.70;;;;;;;8.77;78.45;97762.80;1727022;81;26320;-90
2021/09/22 00:51:14;;;;;;;16.65;12.40;;;;;;;8.80;78.56;97762.94;1726357;82;28754;-90
2021/09/22 00:53:40;;;;;;;17.42;12.55;;;;;;;8.82;78.60;97763.05;1726711;82;25765;-89
2021/09/22 00:56:08;;;;;;;14.95;11.45;;;;;;;8.83;78.70;97753.95;1710501;81;25292;-88
2021/09/22 00:58:35;;;;;;;12.82;8.78;;;;;;;8.81;78.63;97754.68;1727162;82;26156;-89
2021/09/22 01:01:03;;;;;;;13.43;9.80;;;;;;;8.78;78.45;97748.33;1726739;82;25772;-88
2021/09/22 01:03:30;;;;;;;18.57;10.28;;;;;;;8.77;78.53;97749.34;1720008;82;28148;-88
2021/09/22 01:05:58;;;;;;;14.40;10.63;;;;;;;8.79;78.65;97740.57;1713181;83;25961;-89
2021/09/22 01:08:24;;;;;;;16.82;11.55;;;;;;;8.80;78.75;97748.14;1726624;83;25248;-88
2021/09/22 01:10:51;;;;;;;15.05;11.45;;;;;;;8.80;78.76;97746.28;1739489;81;26618;-88
2021/09/22 01:13:18;;;;;;;15.30;11.53;;;;;;;8.81;78.75;97739.88;1726049;82;25794;-89
2021/09/22 01:15:46;;;;;;;15.55;11.60;;;;;;;8.80;78.82;97739.55;1726806;81;28188;-89
2021/09/22 01:18:16;;;;;;;17.07;12.45;;;;;;;8.82;78.87;97733.95;1725952;82;25751;-90
2021/09/22 01:20:48;;;;;;;18.85;13.48;;;;;;;8.82;78.96;97729.40;1708017;82;25844;-89
2021/09/22 01:23:16;;;;;;;18.07;13.20;;;;;;;8.84;78.96;97730.05;1727126;81;26039;-90
2021/09/22 01:25:47;;;;;;;18.12;11.10;;;;;;;8.84;79.06;97730.05;1706883;82;25686;-89
2021/09/22 01:28:17;;;;;;;15.93;11.48;;;;;;;8.84;79.13;97724.66;1726605;81;27483;-89
2021/09/22 01:30:44;;;;;;;12.88;10.20;;;;;;;8.85;79.11;97727.67;1726631;82;25331;-89
2021/09/22 01:33:13;;;;;;;13.85;9.93;;;;;;;8.86;79.11;97719.92;1725462;82;25808;-88
2021/09/22 01:35:43;;;;;;;11.90;9.33;;;;;;;8.87;79.05;97717.55;1726389;82;26726;-88
2021/09/22 01:38:18;;;;;;;14.85;10.18;;;;;;;8.87;79.03;97716.72;1724054;82;25777;-89
2021/09/22 01:41:04;;;;;;;11.65;8.18;;;;;;;8.88;79.06;97708.45;1702888;81;27405;-89
2021/09/22 01:43:33;;;;;;;10.70;6.95;;;;;;;8.87;79.03;97698.70;1726591;81;25877;-90
2021/09/22 01:46:03;;;;;;;9.40;6.40;;;;;;;8.85;78.90;97695.38;1726853;82;25776;-90
2021/09/22 01:48:31;;;;;;;10.08;7.10;;;;;;;8.83;78.83;97693.89;1703643;83;26147;-90
2021/09/22 01:51:00;;;;;;;11.80;7.47;;;;;;;8.79;78.85;97694.81;1726646;82;25737;-89
2021/09/22 01:53:28;;;;;;;9.18;6.37;;;;;;;8.72;78.81;97689.86;1728303;82;28450;-89
2021/09/22 01:55:57;;;;;;;8.30;6.80;;;;;;;8.66;78.84;97694.69;1733176;82;26454;-89
2021/09/22 01:58:25;;;;;;;9.20;7.25;;;;;;;8.61;78.93;97687.69;1739611;82;26496;-90
2021/09/22 02:00:54;;;;;;;10.65;7.15;;;;;;;8.59;78.97;97688.39;1739553;82;26644;-88
2021/09/22 02:03:21;;;;;;;8.08;6.22;;;;;;;8.56;79.08;97688.80;1734728;81;25781;-89
2021/09/22 02:05:48;;;;;;;8.73;7.10;;;;;;;8.46;78.95;97686.91;1726066;82;27623;-89
2021/09/22 02:08:14;;;;;;;10.10;7.37;;;;;;;8.38;78.97;97682.49;1706677;82;25932;-89
2021/09/22 02:10:42;;;;;;;11.33;7.35;;;;;;;8.41;79.23;97683.97;1726740;83;25758;-88
2021/09/22 02:13:09;;;;;;;11.03;7.33;;;;;;;8.43;79.35;97681.93;1699738;83;27035;-89
2021/09/22 02:15:36;;;;;;;10.60;7.20;;;;;;;8.45;79.44;97674.50;1727145;81;25738;-86
2021/09/22 02:18:03;;;;;;;10.85;6.92;;;;;;;8.48;79.51;97678.97;1727081;82;27994;-88
2021/09/22 02:20:30;;;;;;;11.68;8.03;;;;;;;8.52;79.52;97670.02;1727268;82;25769;-89
2021/09/22 02:22:57;;;;;;;13.28;8.40;;;;;;;8.53;79.46;97664.95;1727474;81;26364;-88
2021/09/22 02:25:23;;;;;;;8.88;6.95;;;;;;;8.57;79.49;97664.91;1727150;82;26734;-89
2021/09/22 02:27:50;;;;;;;10.15;7.33;;;;;;;8.56;79.47;97659.20;1727087;82;25738;-89
2021/09/22 02:30:21;;;;;;;9.45;7.40;;;;;;;8.56;79.55;97659.20;1726912;82;27322;-87
2021/09/22 02:32:48;;;;;;;9.78;7.33;;;;;;;8.54;79.52;97656.70;1726704;81;26364;-87
2021/09/22 02:35:15;;;;;;;9.23;7.45;;;;;;;8.56;79.57;97656.00;1726819;83;25693;-86
2021/09/22 02:37:42;;;;;;;9.20;7.20;;;;;;;8.55;79.52;97661.05;1726752;83;26838;-86
2021/09/22 02:40:13;;;;;;;8.43;6.80;;;;;;;8.57;79.60;97658.17;1709565;82;25802;-86
2021/09/22 02:42:43;;;;;;;7.53;6.45;;;;;;;8.57;79.62;97657.63;1721402;82;27531;-87
2021/09/22 02:45:11;;;;;;;9.00;6.62;;;;;;;8.58;79.56;97646.36;1707797;83;25723;-89
2021/09/22 02:47:37;;;;;;;9.05;6.53;;;;;;;8.54;79.58;97641.90;1720580;82;25750;-88
2021/09/22 02:50:05;;;;;;;8.70;6.28;;;;;;;8.48;79.59;97633.23;1712383;83;26801;-88
2021/09/22 02:52:32;;;;;;;8.90;6.42;;;;;;;8.46;79.67;97629.06;1739376;81;25737;-87
2021/09/22 02:54:58;;;;;;;9.13;7.10;;;;;;;8.46;79.77;97620.99;1727074;83;27652;-87
2021/09/22 02:57:25;;;;;;;12.07;7.83;;;;;;;8.47;79.84;97621.31;1739451;82;25940;-90
2021/09/22 02:59:52;;;;;;;10.23;7.85;;;;;;;8.47;79.82;97622.16;1739734;82;25702;-90
2021/09/22 03:02:18;;;;;;;9.40;7.28;;;;;;;8.46;79.89;97623.69;1727016;83;26847;-88
2021/09/22 03:04:45;;;;;;;10.13;6.60;;;;;;;8.44;79.92;97619.87;1739596;81;25698;-87
2021/09/22 03:07:12;;;;;;;12.40;6.80;;;;;;;8.47;79.99;97625.35;1725698;81;27371;-86
2021/09/22 03:09:38;;;;;;;9.05;6.17;;;;;;;8.49;80.04;97621.96;1706552;82;25862;-87
2021/09/22 03:12:05;;;;;;;7.42;5.67;;;;;;;8.53;80.04;97623.25;1727379;81;25797;-86
2021/09/22 03:14:32;;;;;;;8.10;5.95;;;;;;;8.54;80.01;97619.54;1706270;81;25984;-86
2021/09/22 03:16:58;;;;;;;7.80;6.40;;;;;;;8.55;79.96;97626.08;1727403;81;26453;-87
2021/09/22 03:19:25;;;;;;;8.75;6.62;;;;;;;8.51;79.99;97631.52;1727056;81;27456;-88
2021/09/22 03:21:52;;;;;;;8.83;5.92;;;;;;;8.53;80.12;97623.25;1727169;81;25703;-87
2021/09/22 03:24:18;;;;;;;7.00;6.30;;;;;;;8.50;80.06;97610.17;1727327;82;25939;-87
2021/09/22 03:26:45;;;;;;;8.43;6.50;;;;;;;8.51;80.21;97614.53;1726043;81;26430;-89
2021/09/22 03:29:11;;;;;;;6.72;6.03;;;;;;;8.50;80.21;97606.98;1727113;82;25817;-89
2021/09/22 03:31:38;;;;;;;6.75;5.60;;;;;;;8.44;80.20;97608.27;1725831;81;28127;-87
2021/09/22 03:34:05;;;;;;;7.28;5.83;;;;;;;8.47;80.31;97611.39;1727047;82;25748;-89
2021/09/22 03:36:31;;;;;;;7.60;6.15;;;;;;;8.52;80.30;97608.13;1726923;82;25751;-86
2021/09/22 03:38:58;;;;;;;5.47;4.28;;;;;;;8.52;80.26;97608.13;1727014;82;26714;-87
2021/09/22 03:41:24;;;;;;;5.72;4.33;;;;;;;8.55;80.27;97605.06;1727110;81;25710;-86
2021/09/22 03:43:51;;;;;;;4.80;4.20;;;;;;;8.53;80.12;97606.59;1727153;82;27325;-88
2021/09/22 03:46:18;;;;;;;4.95;3.67;;;;;;;8.52;80.16;97610.82;1726769;83;25846;-88
2021/09/22 03:48:44;;;;;;;4.92;4.03;;;;;;;8.47;80.20;97609.21;1727175;81;25751;-87
2021/09/22 03:51:11;;;;;;;6.85;4.28;;;;;;;8.46;80.25;97601.66;1726697;81;25972;-88
2021/09/22 03:53:37;;;;;;;4.78;3.75;;;;;;;8.48;80.25;97606.84;1726709;83;25748;-87
2021/09/22 03:56:04;;;;;;;4.87;3.55;;;;;;;8.48;80.11;97600.12;1727360;82;27372;-86
2021/09/22 03:58:31;;;;;;;5.58;4.15;;;;;;;8.50;80.13;97603.45;1727221;81;26520;-83
2021/09/22 04:00:58;;;;;;;5.25;4.15;;;;;;;8.51;80.10;97605.13;1726874;82;25765;-87
2021/09/22 04:03:25;;;;;;;8.23;4.87;;;;;;;8.52;80.14;97599.55;1726748;82;26004;-86
2021/09/22 04:05:52;;;;;;;5.47;3.80;;;;;;;8.54;80.18;97593.47;1726900;81;25754;-87
2021/09/22 04:08:19;;;;;;;4.20;3.65;;;;;;;8.56;80.08;97593.28;1727294;82;27371;-86
2021/09/22 04:10:45;;;;;;;3.58;3.15;;;;;;;8.55;80.00;97594.30;1726860;82;25799;-87
2021/09/22 04:13:12;;;;;;;3.00;2.70;;;;;;;8.55;79.98;97592.95;1727326;81;25802;-86
2021/09/22 04:15:38;;;;;;;4.35;3.10;;;;;;;8.55;80.00;97591.61;1727366;81;25992;-87
2021/09/22 04:18:05;;;;;;;4.45;3.52;;;;;;;8.55;80.00;97592.95;1726921;81;25705;-86
2021/09/22 04:20:32;;;;;;;4.35;3.40;;;;;;;8.53;79.98;97599.04;1727007;81;27359;-87
2021/09/22 04:23:00;;;;;;;5.00;3.27;;;;;;;8.54;80.04;97599.36;1725907;81;25686;-87
2021/09/22 04:25:27;;;;;;;3.92;3.30;;;;;;;8.56;80.06;97598.66;1726971;81;25728;-87
2021/09/22 04:27:53;;;;;;;3.70;2.87;;;;;;;8.57;80.11;97603.02;1726888;82;25980;-87
2021/09/22 04:30:20;;;;;;;6.05;2.83;;;;;;;8.54;80.18;97600.20;1726899;83;26344;-87
2021/09/22 04:32:46;;;;;;;3.77;2.35;;;;;;;8.58;80.17;97600.61;1726838;82;27373;-87
2021/09/22 04:35:13;;;;;;;3.52;2.55;;;;;;;8.60;80.09;97597.22;1726953;81;25854;-88
2021/09/22 04:37:40;;;;;;;3.60;2.47;;;;;;;8.63;79.98;97602.23;1737152;81;25854;-87
2021/09/22 04:40:11;;;;;;;4.20;2.65;;;;;;;8.64;79.92;97602.55;1725825;81;26863;-87
2021/09/22 04:42:39;;;;;;;14.78;8.70;;;;;;;8.65;79.89;97605.05;1708260;83;25685;-87
2021/09/22 04:45:07;;;;;;;37.63;18.70;;;;;;;8.63;79.87;97611.64;1727032;82;27498;-87
2021/09/22 04:47:36;;;;;;;76.40;34.23;;;;;;;8.66;79.85;97608.57;1739565;82;25725;-87
2021/09/22 04:50:07;;;;;;;116.70;56.35;;;;;;;8.68;79.80;97607.03;1727007;81;25816;-88
2021/09/22 04:52:34;;;;;;;129.07;67.27;;;;;;;8.69;79.79;97611.39;1739315;81;25987;-87
2021/09/22 04:55:00;;;;;;;167.80;92.92;;;;;;;8.70;79.73;97607.65;1739453;82;25781;-88
2021/09/22 04:57:27;;;;;;;119.95;70.67;;;;;;;8.69;79.73;97614.92;1739476;81;28140;-88
2021/09/22 04:59:53;;;;;;;72.47;41.02;;;;;;;8.70;79.73;97609.83;1713398;83;26049;-87
2021/09/22 05:02:20;;;;;;;67.45;38.48;;;;;;;8.69;79.66;97607.36;1710530;82;25740;-87
2021/09/22 05:04:46;;;;;;;28.55;20.00;;;;;;;8.69;79.61;97605.50;1695154;82;26264;-87
2021/09/22 05:07:13;;;;;;;45.88;28.60;;;;;;;8.70;79.63;97599.58;1739546;81;25666;-87
2021/09/22 05:09:40;;;;;;;66.25;39.10;;;;;;;8.69;79.64;97604.16;1739546;82;27544;-88
2021/09/22 05:12:06;;;;;;;116.37;58.02;;;;;;;8.71;79.64;97603.42;1739581;82;26387;-87
2021/09/22 05:14:33;;;;;;;133.47;61.23;;;;;;;8.70;79.62;97602.27;1739711;82;25740;-87
2021/09/22 05:16:59;;;;;;;107.03;53.65;;;;;;;8.70;79.57;97603.09;1739579;82;26085;-87
2021/09/22 05:19:27;;;;;;;87.57;46.70;;;;;;;8.66;79.56;97609.92;1706547;81;25737;-87
2021/09/22 05:21:54;;;;;;;56.20;33.28;;;;;;;8.66;79.61;97607.23;1739585;82;27583;-87
2021/09/22 05:24:20;;;;;;;21.95;15.30;;;;;;;8.66;79.66;97617.48;1706422;82;25789;-87
2021/09/22 05:26:47;;;;;;;26.93;15.90;;;;;;;8.69;79.70;97614.09;1739489;82;25727;-88
2021/09/22 05:29:14;;;;;;;63.40;28.87;;;;;;;8.69;79.66;97619.47;1739697;82;26125;-86
2021/09/22 05:31:43;;;;;;;111.08;53.28;;;;;;;8.67;79.66;97615.63;1739303;81;25746;-88
2021/09/22 05:34:11;;;;;;;52.50;28.77;;;;;;;8.65;79.67;97624.39;1739601;82;27446;-87
2021/09/22 05:36:38;;;;;;;38.88;23.15;;;;;;;8.59;79.67;97622.47;1739564;82;25847;-87
2021/09/22 05:39:05;;;;;;;34.60;21.20;;;;;;;8.57;79.74;97621.31;1739567;81;25949;-88
2021/09/22 05:41:32;;;;;;;24.07;17.50;;;;;;;8.57;79.77;97625.89;1739543;82;25726;-88
2021/09/22 05:43:59;;;;;;;19.65;14.20;;;;;;;8.54;79.84;97624.92;1739615;82;25745;-87
2021/09/22 05:46:25;;;;;;;19.62;15.30;;;;;;;8.53;79.94;97621.91;1739505;82;27461;-87
2021/09/22 05:48:52;;;;;;;32.03;22.02;;;;;;;8.54;79.91;97630.30;1739411;81;25706;-87
2021/09/22 05:51:18;;;;;;;27.07;20.23;;;;;;;8.54;79.91;97632.99;1725884;82;25770;-87
2021/09/22 05:53:45;;;;;;;27.60;19.52;;;;;;;8.49;79.89;97631.37;1719308;82;26663;-88
2021/09/22 05:56:12;;;;;;;14.73;12.18;;;;;;;8.44;79.93;97632.48;1717051;82;25722;-87
2021/09/22 05:58:38;;;;;;;19.87;13.68;;;;;;;8.37;79.88;97636.95;1712285;82;27492;-87
2021/09/22 06:01:05;;;;;;;15.40;12.35;;;;;;;8.39;79.96;97632.22;1717582;82;25843;-88
2021/09/22 06:03:32;;;;;;;20.25;12.10;;;;;;;8.37;80.02;97632.41;1716569;82;26350;-87
2021/09/22 06:05:58;;;;;;;62.98;31.02;;;;;;;8.35;80.09;97636.30;1712373;82;25818;-86
2021/09/22 06:08:25;;;;;;;54.93;28.83;;;;;;;8.36;80.06;97637.46;1717214;82;25849;-87
2021/09/22 06:10:51;;;;;;;22.82;11.97;;;;;;;8.36;80.01;97640.66;1719346;82;27367;-87
2021/09/22 06:13:18;;;;;;;14.28;7.75;;;;;;;8.37;80.04;97636.95;1713241;82;25937;-88
2021/09/22 06:15:44;;;;;;;9.10;5.42;;;;;;;8.35;80.06;97642.52;1715320;82;25766;-88
2021/09/22 06:18:11;;;;;;;17.25;9.73;;;;;;;8.38;80.00;97644.00;1714036;82;26209;-87
2021/09/22 06:20:38;;;;;;;20.95;11.08;;;;;;;8.38;80.00;97634.07;1712240;82;26352;-87
2021/09/22 06:23:04;;;;;;;14.85;8.63;;;;;;;8.44;80.01;97640.55;1712346;82;28381;-88
2021/09/22 06:25:31;;;;;;;16.12;7.08;;;;;;;8.41;80.12;97644.97;1696544;84;25250;-87
2021/09/22 06:27:59;;;;;;;13.83;8.13;;;;;;;8.41;80.10;97649.00;1696631;84;26170;-88
2021/09/22 06:30:26;;;;;;;10.23;6.75;;;;;;;8.38;80.19;97650.72;1696524;84;26150;-88
2021/09/22 06:32:53;;;;;;;10.10;6.37;;;;;;;8.36;80.31;97653.60;1696572;84;25590;-88
2021/09/22 06:35:20;;;;;;;13.15;8.00;;;;;;;8.36;80.33;97651.42;1696563;84;27376;-87
2021/09/22 06:37:49;;;;;;;10.70;6.78;;;;;;;8.39;80.34;97647.01;1696515;84;25753;-88
2021/09/22 06:40:18;;;;;;;7.40;5.05;;;;;;;8.44;80.37;97652.15;1696533;84;25275;-88
2021/09/22 06:42:48;;;;;;;10.38;5.62;;;;;;;8.47;80.31;97645.53;1696854;84;26002;-89
2021/09/22 06:45:20;;;;;;;7.33;4.80;;;;;;;8.50;80.32;97647.84;1696867;84;25769;-88
2021/09/22 06:47:46;;;;;;;7.00;4.55;;;;;;;8.53;80.25;97655.53;1685219;83;28494;-88
2021/09/22 06:50:13;;;;;;;9.75;4.60;;;;;;;8.50;80.18;97657.26;1679948;84;25744;-88
2021/09/22 06:52:40;;;;;;;14.35;10.58;;;;;;;8.50;80.20;97655.41;1707811;82;25794;-88
2021/09/22 06:55:07;;;;;;;15.72;11.83;;;;;;;8.52;80.20;97652.52;1708377;83;26042;-88
2021/09/22 06:57:34;;;;;;;16.15;10.55;;;;;;;8.50;80.15;97643.30;1702523;83;25743;-88
2021/09/22 07:00:01;;;;;;;14.87;9.45;;;;;;;8.52;80.15;97650.67;1703558;82;27529;-88
2021/09/22 07:02:28;;;;;;;16.65;12.37;;;;;;;8.53;80.14;97651.50;1707487;82;26355;-89
2021/09/22 07:04:54;;;;;;;26.37;17.32;;;;;;;8.54;80.14;97649.13;1739744;81;25690;-88
2021/09/22 07:07:21;;;;;;;57.95;35.23;;;;;;;8.59;80.20;97649.38;1739575;82;26202;-89
2021/09/22 07:09:47;;;;;;;65.35;38.80;;;;;;;8.61;80.20;97652.20;1739685;81;25737;-88
2021/09/22 07:12:14;;;;;;;39.73;25.57;;;;;;;8.64;80.16;97655.02;1726972;82;28222;-89
2021/09/22 07:14:41;;;;;;;18.12;11.85;;;;;;;8.66;80.13;97657.02;1739544;82;25758;-87
2021/09/22 07:17:07;;;;;;;12.15;9.23;;;;;;;8.70;80.10;97661.47;1739634;81;25749;-91
2021/09/22 07:19:34;;;;;;;12.95;8.45;;;;;;;8.73;80.09;97663.27;1739592;82;26769;-88
2021/09/22 07:22:00;;;;;;;48.65;29.15;;;;;;;8.78;80.08;97661.36;1739810;82;25663;-89
2021/09/22 07:24:27;;;;;;;52.25;32.73;;;;;;;8.81;80.08;97659.13;1739611;82;27580;-90
2021/09/22 07:26:54;;;;;;;24.65;18.10;;;;;;;8.81;80.00;97667.20;1739459;82;25705;-88
2021/09/22 07:29:21;;;;;;;15.95;13.10;;;;;;;8.81;80.01;97669.89;1739614;82;25683;-89
2021/09/22 07:31:47;;;;;;;18.05;11.33;;;;;;;8.81;79.95;97664.50;1739671;82;26038;-89
2021/09/22 07:34:14;;;;;;;11.88;9.25;;;;;;;8.79;79.92;97666.55;1739640;81;25539;-88
2021/09/22 07:36:40;;;;;;;12.75;9.35;;;;;;;8.80;79.98;97666.88;1739601;82;27374;-87
2021/09/22 07:39:07;;;;;;;9.45;8.13;;;;;;;8.79;80.01;97666.55;1726021;82;25777;-90
2021/09/22 07:41:33;;;;;;;11.70;8.35;;;;;;;8.80;80.04;97667.39;1726949;81;25765;-86
2021/09/22 07:44:00;;;;;;;9.38;7.30;;;;;;;8.78;80.01;97674.81;1739697;81;26693;-89
2021/09/22 07:46:27;;;;;;;10.48;7.87;;;;;;;8.73;79.96;97679.42;1725702;81;25667;-88
2021/09/22 07:48:53;;;;;;;9.93;7.90;;;;;;;8.74;80.03;97685.13;1706320;81;27377;-88
2021/09/22 07:51:20;;;;;;;10.60;8.08;;;;;;;8.73;80.03;97679.42;1726813;81;26069;-88
2021/09/22 07:53:46;;;;;;;12.63;9.08;;;;;;;8.72;80.06;97679.09;1719602;82;25702;-88
2021/09/22 07:56:13;;;;;;;14.03;9.15;;;;;;;8.68;80.18;97683.22;1717963;82;26216;-88
2021/09/22 07:58:39;;;;;;;12.80;8.58;;;;;;;8.64;80.23;97686.80;1718149;82;25714;-88
2021/09/22 08:01:06;;;;;;;10.72;8.48;;;;;;;8.65;80.33;97690.33;1719624;83;27488;-90
2021/09/22 08:03:33;;;;;;;12.60;7.78;;;;;;;8.67;80.27;97692.31;1717016;82;25806;-87
2021/09/22 08:05:59;;;;;;;9.50;7.72;;;;;;;8.67;80.21;97686.94;1711039;82;26436;-87
2021/09/22 08:08:26;;;;;;;11.85;8.48;;;;;;;8.70;80.27;97691.91;1664340;85;27017;-87
2021/09/22 08:10:52;;;;;;;11.22;8.88;;;;;;;8.72;80.29;97692.55;1664309;84;25706;-88
2021/09/22 08:13:19;;;;;;;13.22;9.35;;;;;;;8.73;80.34;97690.70;1670368;83;27421;-89
2021/09/22 08:15:46;;;;;;;13.10;9.18;;;;;;;8.76;80.38;97693.02;1690579;83;25758;-89
2021/09/22 08:18:12;;;;;;;14.63;9.58;;;;;;;8.78;80.44;97699.87;1690647;83;25335;-91
2021/09/22 08:20:39;;;;;;;16.77;10.30;;;;;;;8.77;80.51;97703.59;1690619;83;26029;-88
2021/09/22 08:23:06;;;;;;;15.90;10.53;;;;;;;8.75;80.48;97698.91;1690638;83;25712;-87
2021/09/22 08:25:34;;;;;;;17.32;10.78;;;;;;;8.79;80.58;97697.50;1690725;83;27529;-89
2021/09/22 08:28:00;;;;;;;15.18;10.70;;;;;;;8.83;80.62;97701.45;1690358;83;25761;-88
2021/09/22 08:30:27;;;;;;;25.23;15.30;;;;;;;8.87;80.53;97701.91;1690649;83;25710;-89
2021/09/22 08:32:54;;;;;;;65.37;39.23;;;;;;;8.90;80.50;97705.06;1690517;83;26989;-87
2021/09/22 08:35:20;;;;;;;53.87;29.90;;;;;;;8.91;80.51;97698.66;1690569;83;25272;-86
2021/09/22 08:37:47;;;;;;;46.00;27.95;;;;;;;8.92;80.56;97704.36;1690515;83;27556;-85
2021/09/22 08:40:14;;;;;;;54.13;34.92;;;;;;;8.94;80.58;97701.45;1690605;83;26411;-88
2021/09/22 08:42:42;;;;;;;43.85;28.73;;;;;;;8.95;80.55;97704.46;1690689;83;26445;-87
2021/09/22 08:45:11;;;;;;;26.33;17.87;;;;;;;8.91;80.60;97708.08;1690760;83;26102;-90
2021/09/22 08:47:44;;;;;;;19.10;13.90;;;;;;;8.93;80.57;97700.64;1690563;83;25701;-88
2021/09/22 08:50:14;;;;;;;17.90;11.95;;;;;;;8.86;80.43;97703.77;1690564;84;27359;-88
2021/09/22 08:52:44;;;;;;;13.78;10.68;;;;;;;8.87;80.52;97706.78;1691667;83;26439;-87
2021/09/22 08:55:13;;;;;;;16.32;11.33;;;;;;;8.88;80.89;97701.72;1675071;84;25695;-87
2021/09/22 08:57:40;;;;;;;18.00;10.68;;;;;;;8.92;80.84;97709.74;1680699;84;26145;-86
2021/09/22 09:00:09;;;;;;;28.98;19.73;;;;;;;8.88;80.76;97708.45;1672940;84;25818;-87
2021/09/22 09:02:40;;;;;;;16.97;12.23;;;;;;;8.90;80.70;97706.41;1666517;84;27468;-90
2021/09/22 09:05:11;;;;;;;15.03;11.18;;;;;;;8.87;80.67;97706.78;1677987;84;26325;-85
2021/09/22 09:07:57;;;;;;;11.80;9.18;;;;;;;8.86;80.70;97716.40;1690352;83;25763;-88
2021/09/22 09:10:28;;;;;;;14.50;10.00;;;;;;;8.85;80.75;97706.14;1670360;84;27214;-85
2021/09/22 09:13:08;;;;;;;17.32;12.03;;;;;;;8.86;80.73;97702.42;1690235;84;25830;-85
2021/09/22 09:15:45;;;;;;;8.65;6.62;;;;;;;8.87;80.76;97705.95;1683840;84;28029;-89
2021/09/22 09:18:21;;;;;;;12.25;8.50;;;;;;;8.89;80.72;97718.71;1674444;84;26024;-86
2021/09/22 09:20:53;;;;;;;16.02;10.05;;;;;;;8.86;80.82;97720.44;1673776;84;25804;-86
2021/09/22 09:23:22;;;;;;;13.72;9.35;;;;;;;8.87;81.01;97724.28;1674388;84;26639;-87
2021/09/22 09:26:03;;;;;;;12.45;8.23;;;;;;;8.90;81.10;97730.64;1664367;84;25768;-87
2021/09/22 09:28:36;;;;;;;9.95;7.17;;;;;;;8.96;81.10;97726.32;1664268;84;27469;-87
2021/09/22 09:31:07;;;;;;;5.80;4.53;;;;;;;8.99;81.17;97731.33;1683269;83;25723;-89
2021/09/22 09:33:49;;;;;;;5.45;3.60;;;;;;;9.02;81.12;97725.05;1664412;84;25739;-87
2021/09/22 09:36:43;;;;;;;;;;;;;;;9.09;80.98;97728.30;1666839;84;26198;-87
2021/09/22 09:39:11;;;;;;;14.38;12.68;;;;;;;9.14;81.01;97726.70;1663478;84;25792;-88
2021/09/22 09:41:51;;;;;;;5.58;5.05;;;;;;;9.18;80.85;97721.73;1686147;84;27422;-87
2021/09/22 09:44:22;;;;;;;3.25;2.85;;;;;;;9.19;80.67;97724.24;1670885;84;25804;-86
2021/09/22 09:46:52;;;;;;;2.67;2.40;;;;;;;9.24;80.80;97720.98;1666638;84;25824;-88
2021/09/22 09:49:23;;;;;;;3.33;2.55;;;;;;;9.32;80.77;97721.66;1674220;84;26227;-87
2021/09/22 09:51:57;;;;;;;3.87;2.70;;;;;;;9.41;80.72;97718.84;1664256;84;25274;-88
2021/09/22 09:54:32;;;;;;;2.98;2.67;;;;;;;9.47;80.44;97722.91;1690608;83;27361;-88
2021/09/22 09:57:12;;;;;;;4.87;3.25;;;;;;;9.53;80.34;97723.48;1717167;82;25715;-89
2021/09/22 09:59:52;;;;;;;4.35;3.92;;;;;;;9.60;80.23;97720.31;1727421;83;25787;-89
2021/09/22 10:02:33;;;;;;;5.85;3.95;;;;;;;9.65;80.11;97725.95;1727156;81;26812;-89
2021/09/22 10:05:01;;;;;;;5.08;3.83;;;;;;;9.72;80.14;97724.63;1727207;82;25763;-89
2021/09/22 10:07:30;;;;;;;3.95;3.58;;;;;;;9.81;79.98;97719.91;1727117;81;28179;-89
2021/09/22 10:09:57;;;;;;;5.10;3.55;;;;;;;9.94;80.08;97715.42;1726900;82;25803;-89
2021/09/22 10:12:24;;;;;;;4.95;3.50;;;;;;;10.04;79.69;97714.53;1726841;81;25757;-90
2021/09/22 10:14:53;;;;;;;4.25;3.25;;;;;;;10.16;79.62;97714.79;1727313;83;26422;-89
2021/09/22 10:17:23;;;;;;;5.67;3.92;;;;;;;10.32;79.56;97718.53;1727476;83;26059;-90
2021/09/22 10:19:52;;;;;;;4.35;3.95;;;;;;;10.54;79.43;97710.28;1727295;82;27380;-91
2021/09/22 10:22:18;;;;;;;4.12;3.12;;;;;;;10.76;79.62;97713.13;1727370;82;25786;-89
2021/09/22 10:24:49;;;;;;;5.67;3.52;;;;;;;10.86;78.94;97712.24;1727344;81;25839;-88
2021/09/22 10:27:18;;;;;;;5.08;3.77;;;;;;;10.90;78.71;97718.88;1712943;83;26020;-89
2021/09/22 10:30:06;;;;;;;4.53;3.55;;;;;;;10.92;78.85;97727.61;1727392;83;25799;-88
2021/09/22 10:32:40;;;;;;;4.42;3.25;;;;;;;10.91;78.40;97724.59;1727357;83;27622;-88
2021/09/22 10:35:36;;;;;;;4.20;3.70;;;;;;;10.88;78.19;97720.94;1727324;81;25785;-88
2021/09/22 10:38:23;;;;;;;6.03;3.70;;;;;;;10.84;78.07;97722.41;1704335;81;25786;-87
2021/09/22 10:41:03;;;;;;;5.60;3.98;;;;;;;10.71;77.78;97719.69;1727290;81;26013;-88
2021/09/22 10:43:43;;;;;;;6.33;4.20;;;;;;;10.55;77.88;97720.05;1727324;83;26347;-88
2021/09/22 10:46:17;;;;;;;6.97;4.05;;;;;;;10.48;78.22;97721.91;1727345;82;27383;-88
2021/09/22 10:48:58;;;;;;;4.33;3.70;;;;;;;10.43;78.28;97736.83;1727202;81;26424;-88
2021/09/22 10:51:37;;;;;;;7.58;4.70;;;;;;;10.32;78.11;97733.88;1727216;83;25678;-87
2021/09/22 10:54:15;;;;;;;6.67;4.20;;;;;;;10.27;78.38;97733.12;1727199;82;25972;-87
2021/09/22 10:57:01;;;;;;;7.53;4.80;;;;;;;10.27;78.29;97727.73;1727299;81;26329;-87
2021/09/22 10:59:32;;;;;;;6.10;4.67;;;;;;;10.21;78.19;97735.30;1727359;81;28222;-87
2021/09/22 11:02:01;;;;;;;8.48;5.03;;;;;;;10.12;78.24;97728.38;1727246;83;26411;-87
2021/09/22 11:04:59;;;;;;;7.70;5.22;;;;;;;10.15;78.19;97722.56;1727058;83;25291;-86
2021/09/22 11:08:00;;;;;;;7.12;5.33;;;;;;;10.15;78.36;97726.61;1727312;82;26820;-86
2021/09/22 11:10:47;;;;;;;7.95;5.22;;;;;;;10.18;78.33;97720.85;1727412;82;25760;-85
2021/09/22 11:13:33;;;;;;;6.72;5.47;;;;;;;10.19;78.30;97725.22;1713037;83;27515;-86
2021/09/22 11:16:17;;;;;;;9.68;5.80;;;;;;;10.24;78.21;97720.06;1726760;82;25754;-86
2021/09/22 11:18:49;;;;;;;7.37;4.53;;;;;;;10.23;77.95;97728.35;1702645;83;25678;-86
2021/09/22 11:21:18;;;;;;;8.40;5.42;;;;;;;10.20;78.12;97722.84;1727152;83;26059;-88
2021/09/22 11:23:45;;;;;;;6.67;5.20;;;;;;;10.25;78.07;97731.17;1710087;83;25764;-86
2021/09/22 11:26:12;;;;;;;7.47;5.03;;;;;;;10.29;78.11;97728.36;1726366;81;27522;-87
2021/09/22 11:28:48;;;;;;;6.15;5.00;;;;;;;10.35;77.92;97731.63;1726836;81;25757;-86
2021/09/22 11:31:15;;;;;;;6.62;4.87;;;;;;;10.40;77.90;97731.00;1726973;82;25774;-86
2021/09/22 11:33:42;;;;;;;8.80;5.28;;;;;;;10.45;77.81;97736.63;1704197;83;25830;-86
2021/09/22 11:36:09;;;;;;;8.30;4.92;;;;;;;10.46;77.66;97728.34;1727143;82;25769;-86
2021/09/22 11:38:37;;;;;;;9.08;5.45;;;;;;;10.48;77.31;97721.39;1739653;82;27388;-87
2021/09/22 11:41:05;;;;;;;8.45;5.60;;;;;;;10.50;77.50;97725.23;1739501;82;26470;-86